This is the latest recevied weather packets stored in our database for station/object KF4WSW-13. If no packets are shown the sender has not sent any weather packets the latest 10 day(s).
| Time | Temp. | Humidity | Pressure | Rain* | Wind** | Luminosity | Snow |
|---|---|---|---|---|---|---|---|
| 1777568796 | 28.89° C | 72% | 1011.4 hPa | 0 mm | - | 826 W/m² | - |
| 1777568493 | 28.33° C | 73% | 1011.5 hPa | 0 mm | - | 833 W/m² | - |
| 1777568189 | 28.33° C | 74% | 1011.3 hPa | 0 mm | - | 860 W/m² | - |
| 1777567887 | 28.89° C | 70% | 1011.3 hPa | 0 mm | - | 830 W/m² | - |
| 1777567582 | 28.33° C | 72% | 1011.5 hPa | 0 mm | - | 845 W/m² | - |
| 1777567280 | 28.33° C | 72% | 1011.4 hPa | 0 mm | - | 839 W/m² | - |
| 1777566979 | 28.89° C | 71% | 1011.5 hPa | 0 mm | - | 800 W/m² | - |
| 1777566676 | 28.33° C | 73% | 1011.3 hPa | 0 mm | - | 802 W/m² | - |
| 1777566373 | 27.78° C | 74% | 1011.5 hPa | 0 mm | - | 201 W/m² | - |
| 1777566071 | 28.33° C | 73% | 1011.2 hPa | 0 mm | - | 878 W/m² | - |
| 1777565766 | 28.33° C | 72% | 1011.2 hPa | 0 mm | - | 755 W/m² | - |
| 1777565463 | 28.33° C | 72% | 1011.2 hPa | 0 mm | - | 769 W/m² | - |
| 1777565159 | 28.33° C | 72% | 1011.1 hPa | 0 mm | - | 790 W/m² | - |
| 1777564855 | 27.78° C | 72% | 1011.3 hPa | 0 mm | - | 759 W/m² | - |
| 1777564550 | 28.89° C | 70% | 1011.3 hPa | 0 mm | - | 754 W/m² | - |
| 1777564245 | 28.33° C | 72% | 1011 hPa | 0 mm | - | 644 W/m² | - |
| 1777563942 | 28.33° C | 72% | 1011.3 hPa | 0 mm | - | 743 W/m² | - |
| 1777563638 | 26.67° C | 75% | 1011.1 hPa | 0 mm | - | 752 W/m² | - |
| 1777563338 | 27.22° C | 74% | 1010.9 hPa | 0 mm | - | 304 W/m² | - |
| 1777563035 | 27.78° C | 73% | 1011.2 hPa | 0 mm | - | 336 W/m² | - |
| 1777562730 | 27.78° C | 72% | 1011 hPa | 0 mm | - | 622 W/m² | - |
| 1777562429 | 27.22° C | 75% | 1011.2 hPa | 0 mm | - | 678 W/m² | - |
| 1777562126 | 26.67° C | 76% | 1010.9 hPa | 0 mm | - | 330 W/m² | - |
| 1777561824 | 27.22° C | 74% | 1011.2 hPa | 0 mm | - | 234 W/m² | - |
| 1777561520 | 27.78° C | 73% | 1011 hPa | 0 mm | - | 396 W/m² | - |
* Rain latest hour (hover to see other rain measurements)
** Current wind speed in m/s (hover to see current wind gust speed)